createdAt,value
2022-11-13T00:02:48.329Z,11.00
2022-11-13T00:08:11.547Z,10.98
2022-11-13T00:13:34.165Z,12.02
2022-11-13T00:18:55.762Z,12.65
2022-11-13T00:24:18.568Z,13.88
2022-11-13T00:29:40.236Z,14.15
2022-11-13T00:35:02.048Z,15.63
2022-11-13T00:40:24.981Z,11.43
2022-11-13T00:45:46.484Z,9.90
2022-11-13T00:51:08.403Z,9.65
2022-11-13T00:56:30.972Z,9.02
2022-11-13T01:01:52.418Z,9.50
2022-11-13T01:07:13.895Z,8.82
2022-11-13T01:12:36.881Z,8.77
2022-11-13T01:17:58.518Z,8.02
2022-11-13T01:23:19.745Z,8.35
2022-11-13T01:28:43.978Z,8.63
2022-11-13T01:34:05.604Z,8.93
2022-11-13T01:39:27.414Z,8.52
2022-11-13T01:44:53.416Z,9.20
2022-11-13T01:50:16.084Z,9.23
2022-11-13T01:55:37.546Z,11.05
2022-11-13T02:01:00.454Z,8.68
2022-11-13T02:06:22.721Z,9.93
2022-11-13T02:11:44.892Z,10.40
2022-11-13T02:17:10.164Z,9.70
2022-11-13T02:22:39.600Z,8.32
2022-11-13T02:28:02.765Z,9.02
2022-11-13T02:33:27.493Z,7.68
2022-11-13T02:38:49.676Z,7.25
2022-11-13T02:44:13.499Z,7.45
2022-11-13T02:49:34.967Z,8.23
2022-11-13T02:54:56.550Z,6.85
2022-11-13T03:00:20.216Z,8.75
2022-11-13T03:05:41.665Z,6.80
2022-11-13T03:11:08.776Z,6.90
2022-11-13T03:16:31.273Z,7.15
2022-11-13T03:21:53.187Z,6.90
2022-11-13T03:27:14.615Z,7.85
2022-11-13T03:32:37.656Z,8.10
2022-11-13T03:37:59.193Z,6.68
2022-11-13T03:43:21.031Z,8.48
2022-11-13T03:48:43.751Z,7.38
2022-11-13T03:54:05.743Z,8.25
2022-11-13T03:59:27.014Z,9.70
2022-11-13T04:04:49.961Z,9.70
2022-11-13T04:10:11.503Z,7.38
2022-11-13T04:15:33.023Z,7.18
2022-11-13T04:21:01.277Z,10.18
2022-11-13T04:26:23.211Z,7.82
2022-11-13T04:31:45.179Z,7.68
2022-11-13T04:37:08.124Z,7.00
2022-11-13T04:42:47.186Z,7.57
2022-11-13T04:48:09.080Z,7.40
2022-11-13T04:53:32.140Z,8.80
2022-11-13T04:58:53.982Z,7.90
2022-11-13T05:04:16.768Z,8.38
2022-11-13T05:09:39.477Z,8.20
2022-11-13T05:15:01.600Z,7.45
2022-11-13T05:20:23.398Z,7.10
2022-11-13T05:25:46.494Z,7.28
2022-11-13T05:31:09.990Z,7.13
2022-11-13T05:36:31.401Z,7.50
2022-11-13T05:41:54.359Z,6.55
2022-11-13T05:47:15.995Z,6.38
2022-11-13T05:52:37.579Z,7.28
2022-11-13T05:58:01.506Z,5.65
2022-11-13T06:03:22.716Z,6.35
2022-11-13T06:08:45.023Z,6.20
2022-11-13T06:14:08.285Z,7.50
2022-11-13T06:19:29.598Z,6.63
2022-11-13T06:24:51.296Z,5.90
2022-11-13T06:30:16.050Z,6.13
2022-11-13T06:35:37.230Z,6.55
2022-11-13T06:40:59.261Z,7.97
2022-11-13T06:46:23.769Z,8.60
2022-11-13T06:51:45.015Z,9.20
2022-11-13T06:57:06.402Z,22.73
2022-11-13T07:02:29.447Z,30.60
2022-11-13T07:07:51.030Z,14.50
2022-11-13T07:13:12.474Z,36.85
2022-11-13T07:18:35.880Z,16.65
2022-11-13T07:23:57.536Z,7.88
2022-11-13T07:29:19.112Z,8.20
2022-11-13T07:34:42.082Z,9.32
2022-11-13T07:40:03.833Z,7.88
2022-11-13T07:45:25.693Z,9.57
2022-11-13T07:50:48.655Z,7.78
2022-11-13T07:56:10.145Z,7.55
2022-11-13T08:01:31.625Z,9.13
2022-11-13T08:06:54.640Z,6.80
2022-11-13T08:12:16.435Z,7.75
2022-11-13T08:17:37.572Z,8.32
2022-11-13T08:23:01.785Z,6.88
2022-11-13T08:28:23.464Z,5.95
2022-11-13T08:33:45.214Z,7.22
2022-11-13T08:39:09.791Z,5.97
2022-11-13T08:44:31.454Z,5.32
2022-11-13T08:49:53.174Z,7.10
2022-11-13T08:55:16.296Z,7.45
2022-11-13T09:00:38.083Z,10.63
2022-11-13T09:05:59.906Z,6.47
2022-11-13T09:11:23.043Z,6.60
2022-11-13T09:16:44.721Z,5.57
2022-11-13T09:22:06.353Z,6.53
2022-11-13T09:27:29.236Z,5.78
2022-11-13T09:32:55.043Z,5.65
2022-11-13T09:38:16.929Z,9.23
2022-11-13T09:43:44.176Z,9.43
2022-11-13T09:49:14.802Z,10.70
2022-11-13T09:54:36.434Z,5.05
2022-11-13T10:00:04.758Z,4.57
2022-11-13T10:05:35.641Z,5.47
2022-11-13T10:11:04.655Z,4.45
2022-11-13T10:16:33.068Z,5.38
2022-11-13T10:22:19.520Z,4.75
2022-11-13T10:33:08.226Z,5.03
2022-11-13T10:44:04.151Z,4.47
2022-11-13T10:49:29.844Z,4.43
2022-11-13T10:54:52.023Z,3.80
2022-11-13T11:00:22.143Z,3.55
2022-11-13T11:05:57.649Z,4.10
2022-11-13T11:11:33.837Z,3.05
2022-11-13T11:16:57.194Z,3.53
2022-11-13T11:22:24.347Z,2.85
2022-11-13T11:27:52.155Z,2.50
2022-11-13T11:33:18.142Z,3.30
2022-11-13T11:38:49.474Z,2.83
2022-11-13T11:44:19.672Z,3.17
2022-11-13T11:49:41.345Z,18.05
2022-11-13T11:55:18.898Z,4.47
2022-11-13T12:00:49.366Z,6.78
2022-11-13T12:06:24.724Z,3.22
2022-11-13T12:11:57.132Z,4.50
2022-11-13T12:17:31.666Z,2.28
2022-11-13T12:23:03.344Z,2.90
2022-11-13T12:28:39.720Z,2.50
2022-11-13T12:34:07.008Z,14.32
2022-11-13T12:39:37.735Z,3.15
2022-11-13T12:45:09.022Z,3.95
2022-11-13T12:50:33.057Z,7.45
2022-11-13T12:56:00.557Z,4.47
2022-11-13T13:01:25.125Z,4.18
2022-11-13T13:07:01.387Z,5.53
2022-11-13T13:12:40.557Z,3.73
2022-11-13T13:18:11.837Z,4.97
2022-11-13T13:23:36.033Z,3.53
2022-11-13T13:29:15.116Z,3.88
2022-11-13T13:34:47.875Z,3.90
2022-11-13T13:40:19.140Z,3.83
2022-11-13T13:45:52.203Z,3.30
2022-11-13T13:51:21.853Z,3.30
2022-11-13T13:56:43.666Z,3.35
2022-11-13T14:02:15.332Z,2.70
2022-11-13T14:07:47.148Z,4.35
2022-11-13T14:13:13.348Z,2.75
2022-11-13T14:18:36.284Z,4.10
2022-11-13T14:24:01.426Z,4.40
2022-11-13T14:29:33.954Z,4.03
2022-11-13T14:34:59.999Z,3.28
2022-11-13T14:40:26.058Z,3.50
2022-11-13T14:45:55.168Z,3.60
2022-11-13T14:51:24.657Z,3.70
2022-11-13T14:56:47.758Z,3.17
2022-11-13T15:02:12.472Z,4.32
2022-11-13T15:07:40.752Z,5.38
2022-11-13T15:13:06.498Z,4.05
2022-11-13T15:18:28.205Z,4.35
2022-11-13T15:23:49.524Z,7.60
2022-11-13T15:29:12.360Z,6.55
2022-11-13T15:34:33.820Z,6.00
2022-11-13T15:39:55.453Z,3.88
2022-11-13T15:45:18.518Z,7.18
2022-11-13T15:50:40.413Z,4.22
2022-11-13T15:56:05.879Z,5.60
2022-11-13T16:01:28.669Z,7.95
2022-11-13T16:06:50.389Z,7.72
2022-11-13T16:12:12.873Z,6.88
2022-11-13T16:17:42.717Z,7.13
2022-11-13T16:23:04.022Z,6.13
2022-11-13T16:28:25.423Z,6.95
2022-11-13T16:33:48.506Z,9.13
2022-11-13T16:39:14.944Z,21.50
2022-11-13T16:44:36.582Z,30.75
2022-11-13T16:50:02.464Z,8.90
2022-11-13T16:55:24.163Z,8.45
2022-11-13T17:00:45.832Z,8.15
2022-11-13T17:06:20.364Z,9.90
2022-11-13T17:11:42.069Z,13.05
2022-11-13T17:17:04.362Z,12.13
2022-11-13T17:22:27.166Z,16.17
2022-11-13T17:27:49.039Z,18.00
2022-11-13T17:33:11.459Z,14.25
2022-11-13T17:38:34.636Z,16.15
2022-11-13T17:44:00.830Z,20.95
2022-11-13T17:49:24.125Z,12.52
2022-11-13T17:54:48.057Z,11.88
2022-11-13T18:00:10.882Z,9.43
2022-11-13T18:05:40.531Z,12.65
2022-11-13T18:11:09.295Z,12.02
2022-11-13T18:16:34.626Z,7.95
2022-11-13T18:21:55.937Z,7.13
2022-11-13T18:27:18.802Z,7.13
2022-11-13T18:32:40.394Z,7.43
2022-11-13T18:38:03.977Z,9.25
2022-11-13T18:43:26.891Z,9.93
2022-11-13T18:48:49.582Z,11.60
2022-11-13T18:54:12.794Z,15.95
2022-11-13T18:59:35.679Z,11.90
2022-11-13T19:04:58.566Z,11.60
2022-11-13T19:10:20.286Z,11.32
2022-11-13T19:15:44.310Z,10.50
2022-11-13T19:21:07.992Z,11.10
2022-11-13T19:26:30.184Z,12.73
2022-11-13T19:31:56.026Z,9.40
2022-11-13T19:37:19.239Z,7.97
2022-11-13T19:42:42.157Z,8.00
2022-11-13T19:48:05.143Z,9.10
2022-11-13T19:53:26.467Z,8.88
2022-11-13T19:58:49.479Z,9.02
2022-11-13T20:04:14.486Z,8.13
2022-11-13T20:09:36.226Z,8.40
2022-11-13T20:14:57.590Z,10.05
2022-11-13T20:20:20.372Z,9.05
2022-11-13T20:25:43.892Z,8.10
2022-11-13T20:31:07.502Z,9.18
2022-11-13T20:36:30.506Z,9.40
2022-11-13T20:41:51.781Z,8.93
2022-11-13T20:47:13.437Z,8.70
2022-11-13T20:52:36.392Z,9.43
2022-11-13T20:57:58.337Z,8.65
2022-11-13T21:03:20.095Z,8.07
2022-11-13T21:08:43.922Z,7.32
2022-11-13T21:14:05.594Z,8.57
2022-11-13T21:19:28.463Z,13.60
2022-11-13T21:24:51.556Z,7.22
2022-11-13T21:30:13.723Z,8.18
2022-11-13T21:35:35.364Z,8.15
2022-11-13T21:41:18.845Z,8.55
2022-11-13T21:46:43.115Z,7.55
2022-11-13T21:52:05.657Z,8.00
2022-11-13T21:57:28.723Z,9.88
2022-11-13T22:02:51.064Z,11.40
2022-11-13T22:08:12.805Z,9.88
2022-11-13T22:13:37.276Z,9.23
2022-11-13T22:19:01.481Z,10.55
2022-11-13T22:24:23.314Z,10.07
2022-11-13T22:29:46.602Z,9.50
2022-11-13T22:35:08.964Z,9.48
2022-11-13T22:40:30.560Z,9.52
2022-11-13T22:45:53.424Z,14.60
2022-11-13T22:51:16.401Z,13.43
2022-11-13T22:56:39.329Z,14.48
2022-11-13T23:02:02.493Z,14.07
2022-11-13T23:07:24.323Z,12.30
2022-11-13T23:12:45.878Z,11.85
2022-11-13T23:18:09.938Z,10.77
2022-11-13T23:23:31.642Z,10.20
2022-11-13T23:28:53.997Z,9.98
2022-11-13T23:34:38.435Z,8.77
2022-11-13T23:39:59.507Z,8.00
2022-11-13T23:45:21.198Z,7.72
2022-11-13T23:50:44.841Z,6.82
2022-11-13T23:56:07.116Z,7.47
